หน้าหลัก
METAR-TAF:

METAR-TAF

ท่าอากาศยาน :

Sarh, ชาด

ละติจูด: 09-09N, ลองจิจูด: 018-23E, ความสูง: 365 ม.

การสังเกตสภาพอากาศปัจจุบัน

รายงานได้ทำขึ้นเมื่อ 5 ชั่วโมงและ 35 นาทีที่แล้ว ณ เวลา 17:00 UTC
ลม 2 นอตจากใต้
อุณหภูมิ 37°C
ความชื้น 33%
ความกดอากาศ 1008 hPa
ทัศนวิสัย 10 กม. หรือมากกว่า
มีเมฆน้อยที่ความสูง 4000 ฟุต
มีเมฆน้อยที่ความสูง 4600 ฟุต, คิวมูโลนิมบัส.

METAR: FTTA 241700Z 18002KT 9999 FEW040 FEW046CB 37/18 Q1008

เวลา: 23:35 (22:35 UTC)


TAF: หายไป

สังเกตการณ์สภาพอากาศและพยากรณ์อากาศของสนามบินมากกว่า 4000 แห่ง (รายงาน METAR และ TAF).

สถานีที่ดูได้จะแสดงไว้ด้วยจุดสีเหลืองและสีแดงบนแผนที่.

เลื่อนเมาส์ไปเหนือจุดเพื่อดูชื่อสถานี.

แล้วคลิกเพื่อดูสังเกตการณ์และการพยากรณ์สภาพอากาศ.

ในการเปลี่ยนแผนที่: คลิกที่ปุ่มสีเขียวที่มีกากบาทสีดำเพื่อซูมเข้า; ที่ปุ่มสีเขียวที่มีขีดเพื่อซูมออก; หรือที่ลูกศรสีเขียวเพื่อไปยังแผนที่ที่อยู่ติดกัน.


METAR-TAF: